Tuesday, September 27, 2016, 2:51 PM EDT

KDYL, Doylestown Airport

Location: Doylestown, PA, United States Lat: 40.333
Local Time: 2:51 PM EDT (18:51 GMT) Lon: -75.117
Time Zone: US/Eastern Elev: 393 ft

Show me the last for .
Show Decoded

2016-09-27 13:54 METAR KDYL 271754Z AUTO VRB04KT 10SM CLR 23/13 A2992 RMK AO2 SLP127 T02330128
                 10233 20172 56017 =
2016-09-27 12:54 METAR KDYL 271654Z AUTO VRB04KT 10SM CLR 22/13 A2993 RMK AO2 SLP131 T02220128 =
2016-09-27 11:54 METAR KDYL 271554Z AUTO VRB03KT 10SM SCT026 21/13 A2995 RMK AO2 SLP138 T02110133
                 =
2016-09-27 11:32 METAR KDYL 271532Z AUTO 32004KT 10SM SCT022 21/14 A2996 RMK AO2 T02110144 =
2016-09-27 11:14 METAR KDYL 271514Z AUTO 29004KT 10SM BKN022 21/15 A2996 RMK AO2 T02060150 =
2016-09-27 10:54 METAR KDYL 271454Z AUTO 10SM SCT017 SCT024 20/16 A2997 RMK AO2 SLP145 T02000156
                 50006 =
2016-09-27 10:19 METAR KDYL 271419Z AUTO 31005KT 10SM SCT014 19/17 A2997 RMK AO2 T01940167 =
2016-09-27 10:11 METAR KDYL 271411Z AUTO 31004KT 10SM BKN014 20/17 A2997 RMK AO2 T02000167 =
2016-09-27 10:02 METAR KDYL 271402Z AUTO 30005KT 10SM SCT013 19/17 A2997 RMK AO2 T01890167 =
2016-09-27 09:54 METAR KDYL 271354Z AUTO 30005KT 10SM SCT008 BKN014 19/17 A2997 RMK AO2 SLP147
                 T01890167 =
2016-09-27 09:51 METAR KDYL 271351Z AUTO 28003KT 10SM SCT008 BKN014 18/17 A2997 RMK AO2 =
2016-09-27 09:28 METAR KDYL 271328Z AUTO 29003KT 10SM BKN008 18/17 A2997 RMK AO2 CIG 005V011
                 T01830172 =
2016-09-27 09:02 METAR KDYL 271302Z AUTO 24003KT 10SM FEW006 18/17 A2996 RMK AO2 T01830167 =
2016-09-27 08:54 METAR KDYL 271254Z AUTO 25003KT 10SM CLR 18/17 A2995 RMK AO2 SLP139 T01780167 =
2016-09-27 07:54 METAR KDYL 271154Z AUTO 00000KT 10SM CLR 17/17 A2993 RMK AO2 SLP132 60009 70009
                 T01720167 10183 20172 53004 =
2016-09-27 06:54 METAR KDYL 271054Z AUTO 28003KT 10SM FEW006 BKN055 17/17 A2992 RMK AO2 SLP129
                 T01720167 =
2016-09-27 06:45 METAR KDYL 271045Z AUTO 31003KT 10SM SCT007 OVC055 17/17 A2992 RMK AO2 T01720167
                 =
2016-09-27 05:54 METAR KDYL 270954Z AUTO 28005KT 10SM BKN008 BKN060 BKN075 18/17 A2992 RMK AO2
                 SLP128 T01780172 =
2016-09-27 05:14 METAR KDYL 270914Z AUTO 26003KT 10SM FEW008 OVC012 18/17 A2991 RMK AO2 T01780172
                 =
2016-09-27 05:01 METAR KDYL 270901Z AUTO VRB04KT 10SM FEW005 FEW009 OVC015 18/17 A2992 RMK AO2
                 T01780172 =
2016-09-27 04:54 METAR KDYL 270854Z AUTO 27004KT 10SM FEW005 OVC013 18/17 A2991 RMK AO2 RAE11
                 SLP126 P0000 60009 T01830172 56008 =
2016-09-27 04:31 METAR KDYL 270831Z AUTO 23003KT 10SM FEW005 OVC014 18/18 A2992 RMK AO2 RAE11
                 P0000 T01830178 =
2016-09-27 03:54 METAR KDYL 270754Z AUTO 25003KT 10SM -RA BKN017 OVC023 18/18 A2991 RMK AO2
                 SLP126 P0005 T01830178 =
2016-09-27 02:54 METAR KDYL 270654Z AUTO 24003KT 9SM -RA OVC019 18/17 A2993 RMK AO2 RAE0555B12
                 SLP131 P0004 T01780172 =
2016-09-27 02:19 METAR KDYL 270619Z AUTO 00000KT 9SM -RA OVC016 18/17 A2993 RMK AO2 RAE0555B12
                 P0001 T01780172 =
2016-09-27 02:11 METAR KDYL 270611Z AUTO 00000KT 10SM OVC014 18/17 A2993 RMK AO2 RAE0555 P0000
                 T01780172 =
2016-09-27 01:54 METAR KDYL 270554Z AUTO 00000KT 7SM -RA BKN015 OVC020 18/17 A2994 RMK AO2 RAB05
                 SLP135 P0000 60000 T01780167 10200 20178 56018 =
2016-09-27 01:03 METAR KDYL 270503Z AUTO 17004KT 10SM FEW017 BKN025 OVC033 18/16 A2994 RMK AO2
                 T01830156 =
2016-09-27 00:54 METAR KDYL 270454Z AUTO VRB03KT 10SM BKN030 OVC037 18/16 A2994 RMK AO2 RAB18E30
                 SLP135 P0000 T01830156 402170072 =
2016-09-26 23:54 METAR KDYL 270354Z AUTO 17003KT 10SM OVC039 19/14 A2997 RMK AO2 SLP144 T01890144
                 =
2016-09-26 22:54 METAR KDYL 270254Z AUTO 16004KT 10SM OVC038 19/14 A2999 RMK AO2 SLP154 T01890144
                 58016 =
2016-09-26 21:54 METAR KDYL 270154Z AUTO 17003KT 10SM OVC038 19/13 A3003 RMK AO2 SLP166 T01890133
                 =
2016-09-26 20:54 METAR KDYL 270054Z AUTO 16003KT 10SM OVC041 19/12 A3004 RMK AO2 SLP171 T01890122
                 =
2016-09-26 19:54 METAR KDYL 262354Z AUTO 17004KT 10SM OVC043 20/11 A3004 RMK AO2 SLP172 T02000111
                 10217 20200 55002 =
2016-09-26 18:54 METAR KDYL 262254Z AUTO 15005KT 10SM OVC043 20/11 A3004 RMK AO2 SLP171 T02000111
                 =
2016-09-26 17:54 METAR KDYL 262154Z AUTO 18004KT 10SM OVC044 21/10 A3005 RMK AO2 SLP173 T02060100
                 =
2016-09-26 16:54 METAR KDYL 262054Z AUTO VRB05KT 10SM OVC046 21/10 A3005 RMK AO2 SLP174 T02110100
                 56018 =
2016-09-26 15:54 METAR KDYL 261954Z AUTO 18008KT 10SM OVC044 21/11 A3005 RMK AO2 SLP176 T02110106
                 =
2016-09-26 14:54 METAR KDYL 261854Z AUTO VRB06KT 10SM OVC044 21/11 A3008 RMK AO2 SLP186 T02110111
                 =

Support USWX by starting your Amazon purchase here.